createdAt,value
2019-04-27T00:00:00.104Z,90.68
2019-04-27T00:02:55.882Z,90.14
2019-04-27T00:05:36.620Z,90.01
2019-04-27T00:08:24.078Z,88.15
2019-04-27T00:11:08.493Z,89.38
2019-04-27T00:13:40.435Z,90.19
2019-04-27T00:16:28.018Z,89.79
2019-04-27T00:19:14.996Z,89.66
2019-04-27T00:21:54.740Z,89.72
2019-04-27T00:24:24.542Z,89.53
2019-04-27T00:26:54.375Z,88.52
2019-04-27T00:29:26.082Z,87.32
2019-04-27T00:31:55.756Z,87.58
2019-04-27T00:34:25.203Z,86.80
2019-04-27T00:37:23.760Z,87.02
2019-04-27T00:40:00.171Z,86.76
2019-04-27T00:42:29.425Z,86.35
2019-04-27T00:44:58.680Z,86.40
2019-04-27T00:47:27.925Z,86.21
2019-04-27T00:49:57.173Z,85.96
2019-04-27T00:52:26.423Z,87.21
2019-04-27T00:54:55.653Z,87.05
2019-04-27T00:57:43.843Z,87.63
2019-04-27T01:00:41.388Z,86.35
2019-04-27T01:03:15.071Z,86.60
2019-04-27T01:05:44.375Z,86.94
2019-04-27T01:08:13.943Z,86.72
2019-04-27T01:10:43.605Z,86.83
2019-04-27T01:13:15.531Z,86.99
2019-04-27T01:15:44.759Z,86.96
2019-04-27T01:18:15.526Z,86.98
2019-04-27T01:20:48.904Z,86.81
2019-04-27T01:23:19.308Z,86.75
2019-04-27T01:26:09.805Z,87.22
2019-04-27T01:28:45.127Z,87.64
2019-04-27T01:31:15.894Z,87.91
2019-04-27T01:33:46.423Z,87.51
2019-04-27T01:36:15.680Z,87.80
2019-04-27T01:38:46.072Z,87.25
2019-04-27T01:41:15.304Z,87.46
2019-04-27T01:43:44.900Z,87.33
2019-04-27T01:46:14.455Z,87.32
2019-04-27T01:48:43.697Z,86.38
2019-04-27T01:51:14.222Z,86.80
2019-04-27T01:53:43.480Z,86.50
2019-04-27T01:56:12.955Z,86.19
2019-04-27T01:58:42.219Z,85.85
2019-04-27T02:01:44.778Z,86.72
2019-04-27T02:04:22.458Z,86.43
2019-04-27T02:06:53.008Z,86.33
2019-04-27T02:09:23.528Z,85.82
2019-04-27T02:11:54.126Z,86.04
2019-04-27T02:14:23.493Z,86.56
2019-04-27T02:16:52.753Z,85.51
2019-04-27T02:19:22.000Z,85.77
2019-04-27T02:21:52.134Z,85.40
2019-04-27T02:24:21.381Z,85.40
2019-04-27T02:26:51.723Z,85.50
2019-04-27T02:29:29.059Z,84.66
2019-04-27T02:32:07.265Z,84.75
2019-04-27T02:34:47.071Z,85.45
2019-04-27T02:37:20.103Z,84.82
2019-04-27T02:39:50.015Z,85.37
2019-04-27T02:42:20.586Z,84.52
2019-04-27T02:44:49.828Z,85.58
2019-04-27T02:47:21.497Z,84.85
2019-04-27T02:49:51.152Z,84.84
2019-04-27T02:52:30.198Z,85.34
2019-04-27T02:54:59.963Z,85.96
2019-04-27T02:57:30.165Z,85.87
2019-04-27T03:00:00.149Z,85.44
2019-04-27T03:02:52.088Z,86.37
2019-04-27T03:05:25.990Z,87.45
2019-04-27T03:07:55.994Z,87.32
2019-04-27T03:10:26.934Z,87.97
2019-04-27T03:13:04.108Z,88.57
2019-04-27T03:15:49.754Z,89.06
2019-04-27T03:18:40.210Z,88.94
2019-04-27T03:21:14.999Z,89.08
2019-04-27T03:23:45.774Z,90.38
2019-04-27T03:26:34.067Z,90.90
2019-04-27T03:29:03.416Z,91.90
2019-04-27T03:31:33.306Z,92.33
2019-04-27T03:34:06.011Z,92.88
2019-04-27T03:36:35.472Z,92.61
2019-04-27T03:39:07.181Z,93.07
2019-04-27T03:41:36.677Z,93.43
2019-04-27T03:44:09.302Z,93.91
2019-04-27T03:46:39.749Z,93.83
2019-04-27T03:49:09.782Z,94.08
2019-04-27T03:52:02.459Z,92.67
2019-04-27T03:54:45.154Z,93.67
2019-04-27T03:57:32.352Z,93.48
2019-04-27T04:00:09.880Z,93.01
2019-04-27T04:02:40.075Z,92.83
2019-04-27T04:05:10.062Z,93.29
2019-04-27T04:07:40.385Z,93.72
2019-04-27T04:10:10.714Z,94.09
2019-04-27T04:13:14.393Z,94.53
2019-04-27T04:15:53.705Z,94.94
2019-04-27T04:18:24.309Z,94.81
2019-04-27T04:20:54.141Z,94.81
2019-04-27T04:23:23.382Z,94.48
2019-04-27T04:25:52.611Z,94.74
2019-04-27T04:28:21.827Z,94.90
2019-04-27T04:30:51.078Z,94.64
2019-04-27T04:33:20.903Z,94.16
2019-04-27T04:35:51.477Z,94.68
2019-04-27T04:38:20.871Z,94.51
2019-04-27T04:40:59.239Z,94.37
2019-04-27T04:43:39.675Z,93.43
2019-04-27T04:46:26.158Z,93.43
2019-04-27T04:48:55.466Z,94.19
2019-04-27T04:51:24.740Z,94.40
2019-04-27T04:53:54.007Z,94.53
2019-04-27T04:56:23.266Z,93.85
2019-04-27T04:58:52.510Z,94.22
2019-04-27T05:01:21.866Z,93.78
2019-04-27T05:03:51.373Z,94.27
2019-04-27T05:06:20.773Z,94.01
2019-04-27T05:08:50.000Z,93.84
2019-04-27T05:11:19.744Z,93.98
2019-04-27T05:13:49.446Z,93.97
2019-04-27T05:16:20.019Z,93.71
2019-04-27T05:18:49.593Z,93.90
2019-04-27T05:21:31.752Z,93.68
2019-04-27T05:24:01.876Z,93.67
2019-04-27T05:26:31.136Z,93.50
2019-04-27T05:29:00.343Z,93.30
2019-04-27T05:31:29.901Z,93.88
2019-04-27T05:34:01.317Z,93.56
2019-04-27T05:36:30.565Z,93.57
2019-04-27T05:39:01.904Z,93.42
2019-04-27T05:41:37.484Z,93.18
2019-04-27T05:44:20.854Z,93.90
2019-04-27T05:47:09.998Z,93.53
2019-04-27T05:49:44.415Z,92.97
2019-04-27T05:52:29.393Z,92.06
2019-04-27T05:54:59.657Z,92.39
2019-04-27T05:57:31.361Z,92.66
2019-04-27T06:00:02.302Z,92.24
2019-04-27T06:02:31.533Z,92.54
2019-04-27T06:05:00.751Z,91.95
2019-04-27T06:07:32.298Z,90.89
2019-04-27T06:10:01.532Z,91.66
2019-04-27T06:12:30.772Z,92.22
2019-04-27T06:15:00.240Z,92.05
2019-04-27T06:17:30.182Z,92.43
2019-04-27T06:19:59.882Z,91.98
2019-04-27T06:22:29.749Z,92.75
2019-04-27T06:25:00.304Z,92.21
2019-04-27T06:27:30.538Z,92.18
2019-04-27T06:30:00.918Z,91.60
2019-04-27T06:32:30.222Z,91.87
2019-04-27T06:34:59.523Z,92.39
2019-04-27T06:37:29.927Z,91.50
2019-04-27T06:40:01.333Z,91.03
2019-04-27T06:42:30.890Z,91.05
2019-04-27T06:45:00.844Z,91.94
2019-04-27T06:47:30.160Z,89.81
2019-04-27T06:49:59.443Z,90.36
2019-04-27T06:52:29.705Z,90.62
2019-04-27T06:55:00.629Z,91.48
2019-04-27T06:57:41.218Z,90.61
2019-04-27T07:00:11.767Z,90.33
2019-04-27T07:02:41.293Z,88.69
2019-04-27T07:05:12.009Z,89.50
2019-04-27T07:07:41.261Z,88.31
2019-04-27T07:10:10.525Z,87.48
2019-04-27T07:12:41.071Z,87.78
2019-04-27T07:15:10.948Z,87.07
2019-04-27T07:17:40.548Z,88.00
2019-04-27T07:20:09.904Z,87.78
2019-04-27T07:22:39.741Z,87.82
2019-04-27T07:25:11.720Z,88.15
2019-04-27T07:27:43.400Z,87.92
2019-04-27T07:30:14.722Z,88.08
2019-04-27T07:32:43.761Z,86.86
2019-04-27T07:35:13.035Z,87.84
2019-04-27T07:37:42.251Z,85.79
2019-04-27T07:40:12.801Z,87.70
2019-04-27T07:42:45.935Z,86.84
2019-04-27T07:45:23.505Z,88.14
2019-04-27T07:47:54.088Z,87.67
2019-04-27T07:50:23.339Z,85.50
2019-04-27T07:52:52.577Z,87.37
2019-04-27T07:55:24.187Z,87.68
2019-04-27T07:57:53.719Z,86.44
2019-04-27T08:00:23.400Z,87.19
2019-04-27T08:02:52.655Z,86.20
2019-04-27T08:05:22.527Z,86.85
2019-04-27T08:07:51.764Z,86.28
2019-04-27T08:10:21.013Z,87.09
2019-04-27T08:13:00.427Z,86.78
2019-04-27T08:15:30.668Z,86.33
2019-04-27T08:17:59.899Z,85.36
2019-04-27T08:20:30.713Z,84.64
2019-04-27T08:23:02.913Z,83.86
2019-04-27T08:25:34.444Z,84.79
2019-04-27T08:28:28.788Z,83.46
2019-04-27T08:31:18.727Z,83.67
2019-04-27T08:33:48.667Z,84.13
2019-04-27T08:36:18.999Z,83.68
2019-04-27T08:38:48.952Z,85.12
2019-04-27T08:41:21.265Z,82.97
2019-04-27T08:43:50.529Z,82.55
2019-04-27T08:46:19.767Z,82.10
2019-04-27T08:48:49.162Z,81.98
2019-04-27T08:51:19.652Z,80.61
2019-04-27T08:53:50.147Z,80.98
2019-04-27T08:56:19.508Z,82.45
2019-04-27T08:58:49.920Z,82.83
2019-04-27T09:01:20.773Z,80.91
2019-04-27T09:03:51.599Z,82.19
2019-04-27T09:06:20.897Z,82.47
2019-04-27T09:09:01.145Z,83.10
2019-04-27T09:11:47.191Z,82.39
2019-04-27T09:14:35.362Z,82.40
2019-04-27T09:17:13.681Z,82.43
2019-04-27T09:20:18.558Z,81.76
2019-04-27T09:22:49.275Z,81.21
2019-04-27T09:25:19.298Z,81.37
2019-04-27T09:27:49.395Z,80.24
2019-04-27T09:30:19.179Z,79.96
2019-04-27T09:32:48.564Z,78.67
2019-04-27T09:35:17.815Z,79.41
2019-04-27T09:37:47.059Z,78.74
2019-04-27T09:40:17.189Z,78.62
2019-04-27T09:42:46.954Z,78.61
2019-04-27T09:45:16.501Z,77.35
2019-04-27T09:47:47.202Z,76.86
2019-04-27T09:50:17.159Z,76.05
2019-04-27T09:52:46.737Z,74.79
2019-04-27T09:55:17.082Z,74.14
2019-04-27T09:57:46.612Z,72.88
2019-04-27T10:00:16.521Z,70.69
2019-04-27T10:02:46.563Z,69.10
2019-04-27T10:05:17.188Z,69.25
2019-04-27T10:07:47.690Z,68.99
2019-04-27T10:10:18.205Z,68.95
2019-04-27T10:12:47.710Z,68.45
2019-04-27T10:15:19.400Z,68.71
2019-04-27T10:17:48.660Z,65.95
2019-04-27T10:20:20.877Z,63.01
2019-04-27T10:22:50.256Z,58.57
2019-04-27T10:25:23.910Z,54.22
2019-04-27T10:28:00.846Z,51.82
2019-04-27T10:30:32.160Z,48.98
2019-04-27T10:33:01.406Z,46.31
2019-04-27T10:35:30.626Z,45.27
2019-04-27T10:37:59.858Z,44.53
2019-04-27T10:40:29.064Z,45.89
2019-04-27T10:42:58.325Z,49.12
2019-04-27T10:45:27.927Z,46.94
2019-04-27T10:47:57.878Z,47.73
2019-04-27T10:50:27.118Z,46.32
2019-04-27T10:52:59.116Z,48.99
2019-04-27T10:55:27.309Z,48.72
2019-04-27T10:57:56.574Z,50.52
2019-04-27T11:00:32.392Z,50.82
2019-04-27T11:03:02.655Z,50.59
2019-04-27T11:05:38.877Z,50.51
2019-04-27T11:08:08.481Z,50.60
2019-04-27T11:10:37.735Z,49.39
2019-04-27T11:13:06.983Z,48.45
2019-04-27T11:15:37.145Z,50.45
2019-04-27T11:18:06.867Z,50.45
2019-04-27T11:20:36.381Z,52.13
2019-04-27T11:23:09.174Z,51.73
2019-04-27T11:25:37.201Z,51.26
2019-04-27T11:28:06.459Z,51.54
2019-04-27T11:30:36.086Z,51.17
2019-04-27T11:33:06.274Z,51.74
2019-04-27T11:35:47.873Z,52.43
2019-04-27T11:38:17.122Z,54.60
2019-04-27T11:40:46.733Z,54.02
2019-04-27T11:43:16.194Z,53.37
2019-04-27T11:45:45.827Z,52.30
2019-04-27T11:48:16.240Z,51.78
2019-04-27T11:50:45.947Z,48.56
2019-04-27T11:53:22.649Z,46.17
2019-04-27T11:55:47.067Z,44.83
2019-04-27T11:58:16.537Z,41.67
2019-04-27T12:00:48.963Z,38.20
2019-04-27T12:03:19.252Z,36.84
2019-04-27T12:05:50.167Z,39.64
2019-04-27T12:08:19.455Z,42.85
2019-04-27T12:10:48.871Z,42.47
2019-04-27T12:13:19.364Z,40.89
2019-04-27T12:15:48.853Z,38.95
2019-04-27T12:18:18.061Z,38.68
2019-04-27T12:20:47.308Z,39.13
2019-04-27T12:23:17.394Z,39.93
2019-04-27T12:25:46.656Z,39.67
2019-04-27T12:28:22.650Z,42.39
2019-04-27T12:31:01.329Z,42.19
2019-04-27T12:33:30.553Z,41.11
2019-04-27T12:36:02.104Z,43.25
2019-04-27T12:38:31.322Z,43.42
2019-04-27T12:41:00.588Z,39.80
2019-04-27T12:43:29.799Z,40.76
2019-04-27T12:45:59.242Z,41.08
2019-04-27T12:48:28.467Z,41.98
2019-04-27T12:50:58.013Z,41.04
2019-04-27T12:53:47.623Z,40.19
2019-04-27T12:56:26.548Z,41.13
2019-04-27T12:59:02.613Z,44.01
2019-04-27T13:01:31.859Z,45.28
2019-04-27T13:04:01.468Z,45.95
2019-04-27T13:06:30.762Z,45.84
2019-04-27T13:09:02.051Z,46.32
2019-04-27T13:11:31.337Z,48.42
2019-04-27T13:14:00.576Z,49.11
2019-04-27T13:16:30.505Z,50.08
2019-04-27T13:18:59.856Z,49.11
2019-04-27T13:21:29.100Z,50.39
2019-04-27T13:24:04.100Z,52.05
2019-04-27T13:26:29.335Z,52.71
2019-04-27T13:28:58.879Z,55.57
2019-04-27T13:31:29.367Z,58.18
2019-04-27T13:34:02.631Z,60.36
2019-04-27T13:36:33.098Z,60.05
2019-04-27T13:39:02.286Z,60.68
2019-04-27T13:41:32.925Z,61.76
2019-04-27T13:44:06.429Z,61.37
2019-04-27T13:46:52.949Z,62.70
2019-04-27T13:49:56.326Z,64.52
2019-04-27T13:52:29.999Z,67.88
2019-04-27T13:54:59.332Z,71.07
2019-04-27T13:57:28.603Z,70.55
2019-04-27T13:59:58.022Z,64.95
2019-04-27T14:02:32.271Z,63.67
2019-04-27T14:05:00.289Z,66.70
2019-04-27T14:07:29.864Z,62.01
2019-04-27T14:10:00.029Z,59.73
2019-04-27T14:12:31.320Z,59.05
2019-04-27T14:15:00.523Z,56.51
2019-04-27T14:17:31.897Z,56.38
2019-04-27T14:20:01.457Z,57.22
2019-04-27T14:22:31.626Z,55.22
2019-04-27T14:25:00.929Z,52.55
2019-04-27T14:27:36.764Z,52.60
2019-04-27T14:30:06.276Z,48.09
2019-04-27T14:32:35.906Z,40.56
2019-04-27T14:35:05.490Z,42.34
2019-04-27T14:37:34.945Z,39.28
2019-04-27T14:40:04.678Z,41.15
2019-04-27T14:42:34.236Z,39.39
2019-04-27T14:45:03.752Z,38.38
2019-04-27T14:47:33.154Z,40.12
2019-04-27T14:50:04.250Z,42.61
2019-04-27T14:52:34.608Z,42.31
2019-04-27T14:55:04.705Z,44.23
2019-04-27T14:57:33.948Z,45.00
2019-04-27T15:00:05.276Z,44.75
2019-04-27T15:02:34.689Z,45.28
2019-04-27T15:05:04.877Z,46.31
2019-04-27T15:07:34.303Z,46.55
2019-04-27T15:10:04.803Z,46.46
2019-04-27T15:12:35.499Z,46.97
2019-04-27T15:15:05.707Z,44.44
2019-04-27T15:17:35.306Z,45.28
2019-04-27T15:20:09.233Z,47.28
2019-04-27T15:22:40.341Z,48.24
2019-04-27T15:25:13.563Z,48.68
2019-04-27T15:27:46.907Z,49.44
2019-04-27T15:30:22.553Z,51.08
2019-04-27T15:33:20.181Z,52.08
2019-04-27T15:36:07.512Z,50.09
2019-04-27T15:38:43.002Z,48.36
2019-04-27T15:41:31.526Z,49.13
2019-04-27T15:44:05.830Z,51.82
2019-04-27T15:46:33.768Z,47.88
2019-04-27T15:49:09.767Z,48.35
2019-04-27T15:51:34.443Z,48.79
2019-04-27T15:54:03.779Z,48.48
2019-04-27T15:56:35.171Z,48.91
2019-04-27T15:59:08.140Z,47.48
2019-04-27T16:01:39.527Z,48.57
2019-04-27T16:04:11.139Z,49.05
2019-04-27T16:06:42.893Z,50.96
2019-04-27T16:09:15.858Z,53.09
2019-04-27T16:11:50.174Z,51.45
2019-04-27T16:14:19.367Z,50.57
2019-04-27T16:16:48.792Z,49.41
2019-04-27T16:19:18.472Z,49.33
2019-04-27T16:21:54.084Z,50.21
2019-04-27T16:24:21.129Z,50.21
2019-04-27T16:26:52.292Z,47.68
2019-04-27T16:29:22.960Z,48.44
2019-04-27T16:31:53.719Z,49.80
2019-04-27T16:34:23.407Z,50.01
2019-04-27T16:36:52.803Z,50.22
2019-04-27T16:39:22.481Z,53.39
2019-04-27T16:41:51.714Z,54.94
2019-04-27T16:44:20.958Z,55.14
2019-04-27T16:46:50.188Z,56.55
2019-04-27T16:49:19.451Z,57.46
2019-04-27T16:51:50.210Z,59.33
2019-04-27T16:54:21.375Z,59.46
2019-04-27T16:57:03.184Z,59.35
2019-04-27T16:59:43.425Z,57.98
2019-04-27T17:02:01.673Z,58.47
2019-04-27T17:04:31.503Z,59.69
2019-04-27T17:07:01.076Z,59.92
2019-04-27T17:09:36.355Z,60.57
2019-04-27T17:12:02.850Z,61.87
2019-04-27T17:14:49.068Z,61.80
2019-04-27T17:17:42.803Z,61.52
2019-04-27T17:20:19.561Z,62.65
2019-04-27T17:22:45.731Z,63.02
2019-04-27T17:25:15.508Z,65.47
2019-04-27T17:27:53.386Z,66.32
2019-04-27T17:30:24.822Z,67.53
2019-04-27T17:33:18.399Z,67.03
2019-04-27T17:35:48.854Z,67.27
2019-04-27T17:38:18.288Z,67.89
2019-04-27T17:40:48.449Z,68.21
2019-04-27T17:43:18.771Z,68.83
2019-04-27T17:45:48.592Z,69.26
2019-04-27T17:48:18.483Z,70.53
2019-04-27T17:50:49.001Z,69.40
2019-04-27T17:53:20.274Z,68.35
2019-04-27T17:55:49.183Z,69.27
2019-04-27T17:58:20.926Z,68.24
2019-04-27T18:00:49.378Z,67.84
2019-04-27T18:03:21.045Z,67.94
2019-04-27T18:05:51.965Z,67.57
2019-04-27T18:08:25.065Z,67.66
2019-04-27T18:10:53.689Z,67.42
2019-04-27T18:13:25.534Z,67.77
2019-04-27T18:15:54.329Z,67.86
2019-04-27T18:18:40.384Z,68.08
2019-04-27T18:21:12.765Z,68.40
2019-04-27T18:23:45.413Z,68.75
2019-04-27T18:26:25.154Z,68.82
2019-04-27T18:28:54.448Z,69.10
2019-04-27T18:31:23.694Z,69.13
2019-04-27T18:33:52.903Z,69.09
2019-04-27T18:36:22.171Z,68.97
2019-04-27T18:38:51.781Z,69.28
2019-04-27T18:41:21.279Z,69.34
2019-04-27T18:43:52.175Z,69.74
2019-04-27T18:46:24.680Z,69.76
2019-04-27T18:49:11.492Z,70.36
2019-04-27T18:52:17.997Z,70.17
2019-04-27T18:54:48.136Z,70.20
2019-04-27T18:57:17.619Z,70.62
2019-04-27T18:59:48.243Z,70.76
2019-04-27T19:02:18.481Z,71.04
2019-04-27T19:04:50.004Z,71.25
2019-04-27T19:07:19.969Z,71.46
2019-04-27T19:09:49.668Z,69.96
2019-04-27T19:12:20.473Z,62.34
2019-04-27T19:14:50.121Z,63.96
2019-04-27T19:17:19.899Z,65.43
2019-04-27T19:19:49.356Z,66.99
2019-04-27T19:22:18.601Z,68.26
2019-04-27T19:24:48.238Z,69.79
2019-04-27T19:27:53.415Z,70.19
2019-04-27T19:30:32.954Z,71.27
2019-04-27T19:33:02.384Z,72.40
2019-04-27T19:35:34.078Z,74.25
2019-04-27T19:38:03.320Z,75.31
2019-04-27T19:40:32.527Z,75.65
2019-04-27T19:43:01.771Z,76.52
2019-04-27T19:45:30.996Z,78.54
2019-04-27T19:48:00.239Z,81.75
2019-04-27T19:50:29.457Z,82.61
2019-04-27T19:53:00.450Z,85.02
2019-04-27T19:55:30.759Z,85.78
2019-04-27T19:58:01.737Z,86.46
2019-04-27T20:01:09.689Z,86.96
2019-04-27T20:03:34.921Z,88.88
2019-04-27T20:06:04.351Z,88.94
2019-04-27T20:08:36.070Z,88.35
2019-04-27T20:11:05.308Z,88.72
2019-04-27T20:13:34.571Z,88.68
2019-04-27T20:16:03.880Z,88.85
2019-04-27T20:18:33.124Z,89.30
2019-04-27T20:21:02.341Z,89.24
2019-04-27T20:23:31.863Z,88.80
2019-04-27T20:26:01.084Z,87.37
2019-04-27T20:28:31.417Z,86.96
2019-04-27T20:31:02.726Z,87.75
2019-04-27T20:33:32.043Z,87.46
2019-04-27T20:36:01.092Z,87.55
2019-04-27T20:38:31.674Z,87.70
2019-04-27T20:41:01.416Z,87.72
2019-04-27T20:43:31.810Z,86.37
2019-04-27T20:46:02.021Z,87.37
2019-04-27T20:48:31.364Z,88.05
2019-04-27T20:51:03.619Z,87.94
2019-04-27T20:53:41.922Z,88.86
2019-04-27T20:56:11.385Z,89.28
2019-04-27T20:58:41.116Z,89.15
2019-04-27T21:01:11.399Z,89.27
2019-04-27T21:03:51.080Z,88.83
2019-04-27T21:06:51.311Z,88.66
2019-04-27T21:09:21.295Z,89.37
2019-04-27T21:11:50.768Z,89.45
2019-04-27T21:14:21.687Z,89.62
2019-04-27T21:16:51.715Z,89.43
2019-04-27T21:19:21.205Z,88.80
2019-04-27T21:21:51.000Z,88.59
2019-04-27T21:24:22.689Z,88.04
2019-04-27T21:26:51.633Z,87.68
2019-04-27T21:29:21.208Z,88.18
2019-04-27T21:31:52.000Z,87.80
2019-04-27T21:34:22.020Z,88.13
2019-04-27T21:36:51.301Z,88.31
2019-04-27T21:39:21.734Z,88.33
2019-04-27T21:41:51.723Z,87.70
2019-04-27T21:44:21.829Z,87.91
2019-04-27T21:46:51.918Z,87.66
2019-04-27T21:49:22.939Z,86.72
2019-04-27T21:52:03.651Z,87.18
2019-04-27T21:54:33.750Z,87.65
2019-04-27T21:57:03.137Z,88.57
2019-04-27T21:59:32.390Z,88.57
2019-04-27T22:02:05.924Z,88.01
2019-04-27T22:04:35.197Z,87.66
2019-04-27T22:07:04.849Z,87.72
2019-04-27T22:09:34.083Z,87.81
2019-04-27T22:12:03.457Z,87.79
2019-04-27T22:14:32.711Z,88.06
2019-04-27T22:17:01.916Z,87.31
2019-04-27T22:19:31.519Z,87.30
2019-04-27T22:22:04.832Z,87.88
2019-04-27T22:24:36.910Z,88.47
2019-04-27T22:27:06.143Z,88.82
2019-04-27T22:29:35.378Z,88.70
2019-04-27T22:32:04.669Z,88.35
2019-04-27T22:34:36.925Z,87.74
2019-04-27T22:37:06.159Z,87.94
2019-04-27T22:40:01.005Z,87.56
2019-04-27T22:43:01.646Z,87.63
2019-04-27T22:45:33.150Z,87.48
2019-04-27T22:48:02.359Z,87.73
2019-04-27T22:50:31.603Z,87.24
2019-04-27T22:53:00.817Z,86.72
2019-04-27T22:55:31.018Z,86.60
2019-04-27T22:58:11.712Z,86.38
2019-04-27T23:01:05.947Z,86.44
2019-04-27T23:03:36.750Z,86.34
2019-04-27T23:06:08.163Z,86.24
2019-04-27T23:08:38.830Z,86.44
2019-04-27T23:11:08.301Z,86.50
2019-04-27T23:13:37.516Z,86.37
2019-04-27T23:16:08.632Z,86.57
2019-04-27T23:18:37.849Z,86.61
2019-04-27T23:21:07.462Z,86.78
2019-04-27T23:23:36.668Z,86.77
2019-04-27T23:26:05.912Z,86.80
2019-04-27T23:28:35.229Z,86.93
2019-04-27T23:31:10.908Z,87.50
2019-04-27T23:33:42.655Z,87.51
2019-04-27T23:36:11.893Z,86.92
2019-04-27T23:38:41.107Z,85.82
2019-04-27T23:41:11.629Z,86.11
2019-04-27T23:43:47.966Z,86.41
2019-04-27T23:46:17.205Z,86.00
2019-04-27T23:48:46.429Z,86.14
2019-04-27T23:51:29.536Z,85.11
2019-04-27T23:53:59.153Z,85.05
2019-04-27T23:56:28.387Z,84.79
2019-04-27T23:58:57.611Z,85.24
